sensor_id;sensor_type;location;lat;lon;timestamp;pressure;altitude;pressure_sealevel;temperature;humidity
55470;BME280;41334;47.872;16.384;2024-02-21T00:03:20;99935.03;;;5.54;45.61
55470;BME280;41334;47.872;16.384;2024-02-21T00:08:22;99923.09;;;5.35;45.97
55470;BME280;41334;47.872;16.384;2024-02-21T00:13:24;99929.84;;;5.18;46.15
55470;BME280;41334;47.872;16.384;2024-02-21T00:18:26;99929.94;;;5.13;46.63
55470;BME280;41334;47.872;16.384;2024-02-21T00:23:31;99926.63;;;5.40;46.14
55470;BME280;41334;47.872;16.384;2024-02-21T00:28:33;99925.53;;;5.07;46.90
55470;BME280;41334;47.872;16.384;2024-02-21T00:33:35;99922.22;;;5.34;46.38
55470;BME280;41334;47.872;16.384;2024-02-21T00:38:37;99915.59;;;5.35;46.42
55470;BME280;41334;47.872;16.384;2024-02-21T00:43:39;99914.53;;;5.31;46.52
55470;BME280;41334;47.872;16.384;2024-02-21T00:48:41;99916.09;;;5.13;46.53
55470;BME280;41334;47.872;16.384;2024-02-21T00:53:43;99901.63;;;5.21;46.52
55470;BME280;41334;47.872;16.384;2024-02-21T00:58:45;99907.41;;;5.25;46.35
55470;BME280;41334;47.872;16.384;2024-02-21T01:03:48;99907.53;;;5.39;46.12
55470;BME280;41334;47.872;16.384;2024-02-21T01:08:50;99901.13;;;5.43;45.97
55470;BME280;41334;47.872;16.384;2024-02-21T01:13:52;99891.94;;;5.48;46.01
55470;BME280;41334;47.872;16.384;2024-02-21T01:18:54;99893.84;;;5.23;46.10
55470;BME280;41334;47.872;16.384;2024-02-21T01:23:56;99896.91;;;5.22;46.49
55470;BME280;41334;47.872;16.384;2024-02-21T01:28:58;99889.94;;;5.30;46.02
55470;BME280;41334;47.872;16.384;2024-02-21T01:34:00;99886.63;;;5.27;46.13
55470;BME280;41334;47.872;16.384;2024-02-21T01:39:02;99891.22;;;5.37;46.07
55470;BME280;41334;47.872;16.384;2024-02-21T01:44:04;99870.88;;;5.52;45.67
55470;BME280;41334;47.872;16.384;2024-02-21T01:49:06;99860.50;;;5.15;46.45
55470;BME280;41334;47.872;16.384;2024-02-21T01:54:09;99851.94;;;5.40;45.47
55470;BME280;41334;47.872;16.384;2024-02-21T01:59:13;99850.22;;;5.20;46.14
55470;BME280;41334;47.872;16.384;2024-02-21T02:04:15;99850.09;;;5.54;45.44
55470;BME280;41334;47.872;16.384;2024-02-21T02:09:17;99839.84;;;5.55;45.53
55470;BME280;41334;47.872;16.384;2024-02-21T02:14:19;99844.34;;;5.27;45.95
55470;BME280;41334;47.872;16.384;2024-02-21T02:19:21;99837.03;;;5.36;45.88
55470;BME280;41334;47.872;16.384;2024-02-21T02:24:24;99828.44;;;5.38;45.93
55470;BME280;41334;47.872;16.384;2024-02-21T02:29:32;99827.88;;;5.41;45.97
55470;BME280;41334;47.872;16.384;2024-02-21T02:34:34;99821.75;;;5.20;46.69
55470;BME280;41334;47.872;16.384;2024-02-21T02:39:36;99815.03;;;5.26;46.49
55470;BME280;41334;47.872;16.384;2024-02-21T02:44:38;99813.81;;;5.13;46.79
55470;BME280;41334;47.872;16.384;2024-02-21T02:49:41;99816.50;;;5.18;46.61
55470;BME280;41334;47.872;16.384;2024-02-21T02:54:44;99827.28;;;5.20;46.52
55470;BME280;41334;47.872;16.384;2024-02-21T02:59:50;99817.28;;;5.24;46.62
55470;BME280;41334;47.872;16.384;2024-02-21T03:04:52;99810.09;;;5.23;46.75
55470;BME280;41334;47.872;16.384;2024-02-21T03:09:55;99813.81;;;5.13;47.21
55470;BME280;41334;47.872;16.384;2024-02-21T03:14:57;99807.31;;;5.23;47.12
55470;BME280;41334;47.872;16.384;2024-02-21T03:19:59;99815.44;;;5.14;47.20
55470;BME280;41334;47.872;16.384;2024-02-21T03:25:02;99815.63;;;5.23;47.22
55470;BME280;41334;47.872;16.384;2024-02-21T03:30:05;99806.28;;;5.19;47.60
55470;BME280;41334;47.872;16.384;2024-02-21T03:35:07;99805.72;;;5.17;47.38
55470;BME280;41334;47.872;16.384;2024-02-21T03:40:09;99808.19;;;4.94;47.99
55470;BME280;41334;47.872;16.384;2024-02-21T03:45:11;99819.88;;;4.86;48.37
55470;BME280;41334;47.872;16.384;2024-02-21T03:50:13;99816.28;;;4.86;48.33
55470;BME280;41334;47.872;16.384;2024-02-21T03:55:16;99816.19;;;4.96;48.28
55470;BME280;41334;47.872;16.384;2024-02-21T04:00:18;99825.88;;;4.64;48.79
55470;BME280;41334;47.872;16.384;2024-02-21T04:05:20;99822.22;;;4.74;48.63
55470;BME280;41334;47.872;16.384;2024-02-21T04:10:22;99826.75;;;4.60;49.04
55470;BME280;41334;47.872;16.384;2024-02-21T04:15:26;99832.00;;;4.61;49.08
55470;BME280;41334;47.872;16.384;2024-02-21T04:20:28;99830.94;;;4.57;49.07
55470;BME280;41334;47.872;16.384;2024-02-21T04:25:30;99826.31;;;4.47;49.50
55470;BME280;41334;47.872;16.384;2024-02-21T04:30:32;99846.59;;;4.33;49.95
55470;BME280;41334;47.872;16.384;2024-02-21T04:35:36;99843.63;;;4.24;50.04
55470;BME280;41334;47.872;16.384;2024-02-21T04:40:38;99828.44;;;4.16;50.31
55470;BME280;41334;47.872;16.384;2024-02-21T04:45:40;99824.53;;;4.28;50.05
55470;BME280;41334;47.872;16.384;2024-02-21T04:50:42;99820.88;;;4.37;49.94
55470;BME280;41334;47.872;16.384;2024-02-21T04:55:45;99830.00;;;4.33;49.86
55470;BME280;41334;47.872;16.384;2024-02-21T05:00:48;99821.69;;;4.38;49.99
55470;BME280;41334;47.872;16.384;2024-02-21T05:05:50;99811.75;;;4.37;50.01
55470;BME280;41334;47.872;16.384;2024-02-21T05:10:52;99811.50;;;4.33;50.26
55470;BME280;41334;47.872;16.384;2024-02-21T05:15:55;99804.91;;;4.34;50.24
55470;BME280;41334;47.872;16.384;2024-02-21T05:20:57;99811.03;;;4.26;50.65
55470;BME280;41334;47.872;16.384;2024-02-21T05:25:59;99806.31;;;4.27;50.44
55470;BME280;41334;47.872;16.384;2024-02-21T05:31:02;99809.34;;;4.30;50.29
55470;BME280;41334;47.872;16.384;2024-02-21T05:36:05;99788.81;;;4.41;50.01
55470;BME280;41334;47.872;16.384;2024-02-21T05:41:07;99785.03;;;4.32;50.33
55470;BME280;41334;47.872;16.384;2024-02-21T05:46:12;99786.91;;;4.37;50.10
55470;BME280;41334;47.872;16.384;2024-02-21T05:51:16;99784.41;;;4.40;50.29
55470;BME280;41334;47.872;16.384;2024-02-21T05:56:18;99772.78;;;4.43;50.46
55470;BME280;41334;47.872;16.384;2024-02-21T06:01:20;99782.34;;;4.56;49.68
55470;BME280;41334;47.872;16.384;2024-02-21T06:06:23;99777.22;;;4.68;49.45
55470;BME280;41334;47.872;16.384;2024-02-21T06:11:26;99765.94;;;4.65;50.04
55470;BME280;41334;47.872;16.384;2024-02-21T06:16:28;99763.66;;;4.72;49.74
55470;BME280;41334;47.872;16.384;2024-02-21T06:21:30;99758.38;;;4.75;49.40
55470;BME280;41334;47.872;16.384;2024-02-21T06:26:32;99755.50;;;4.86;49.08
55470;BME280;41334;47.872;16.384;2024-02-21T06:31:35;99764.03;;;4.89;49.58
55470;BME280;41334;47.872;16.384;2024-02-21T06:36:37;99764.75;;;5.00;49.29
55470;BME280;41334;47.872;16.384;2024-02-21T06:41:39;99760.91;;;5.20;49.29
55470;BME280;41334;47.872;16.384;2024-02-21T06:46:42;99761.44;;;5.46;48.97
55470;BME280;41334;47.872;16.384;2024-02-21T06:51:45;99761.72;;;5.63;48.79
55470;BME280;41334;47.872;16.384;2024-02-21T06:56:46;99768.03;;;5.88;47.99
55470;BME280;41334;47.872;16.384;2024-02-21T07:01:53;99768.34;;;6.05;48.62
55470;BME280;41334;47.872;16.384;2024-02-21T07:06:55;99764.94;;;6.27;47.96
55470;BME280;41334;47.872;16.384;2024-02-21T07:11:58;99769.50;;;6.50;47.19
55470;BME280;41334;47.872;16.384;2024-02-21T07:17:00;99769.97;;;6.57;47.34
55470;BME280;41334;47.872;16.384;2024-02-21T07:22:02;99774.09;;;6.88;46.81
55470;BME280;41334;47.872;16.384;2024-02-21T07:27:04;99771.25;;;7.06;46.21
55470;BME280;41334;47.872;16.384;2024-02-21T07:32:06;99775.38;;;6.95;45.98
55470;BME280;41334;47.872;16.384;2024-02-21T07:37:09;99779.91;;;7.05;46.11
55470;BME280;41334;47.872;16.384;2024-02-21T07:42:11;99761.06;;;6.88;46.43
55470;BME280;41334;47.872;16.384;2024-02-21T07:47:13;99760.75;;;6.76;46.41
55470;BME280;41334;47.872;16.384;2024-02-21T07:52:16;99756.53;;;6.65;47.22
55470;BME280;41334;47.872;16.384;2024-02-21T07:57:19;99747.47;;;6.59;47.42
55470;BME280;41334;47.872;16.384;2024-02-21T08:02:21;99746.47;;;6.69;47.12
55470;BME280;41334;47.872;16.384;2024-02-21T08:07:23;99741.47;;;6.98;46.37
55470;BME280;41334;47.872;16.384;2024-02-21T08:12:25;99743.31;;;7.44;45.06
55470;BME280;41334;47.872;16.384;2024-02-21T08:17:28;99731.44;;;7.66;43.94
55470;BME280;41334;47.872;16.384;2024-02-21T08:22:30;99725.44;;;7.86;43.66
55470;BME280;41334;47.872;16.384;2024-02-21T08:27:32;99716.16;;;8.13;43.07
55470;BME280;41334;47.872;16.384;2024-02-21T08:32:34;99707.38;;;8.20;42.42
55470;BME280;41334;47.872;16.384;2024-02-21T08:37:38;99700.69;;;8.44;41.98
55470;BME280;41334;47.872;16.384;2024-02-21T08:42:40;99711.66;;;8.49;40.71
55470;BME280;41334;47.872;16.384;2024-02-21T08:47:42;99712.91;;;8.65;39.06
55470;BME280;41334;47.872;16.384;2024-02-21T08:52:45;99712.81;;;9.27;37.41
55470;BME280;41334;47.872;16.384;2024-02-21T08:57:47;99696.34;;;9.65;36.27
55470;BME280;41334;47.872;16.384;2024-02-21T09:02:49;99691.75;;;9.61;35.69
55470;BME280;41334;47.872;16.384;2024-02-21T09:07:51;99693.75;;;9.95;35.53
55470;BME280;41334;47.872;16.384;2024-02-21T09:12:53;99689.38;;;10.58;33.76
55470;BME280;41334;47.872;16.384;2024-02-21T09:17:55;99679.78;;;10.76;34.05
55470;BME280;41334;47.872;16.384;2024-02-21T09:22:58;99671.59;;;11.10;33.83
55470;BME280;41334;47.872;16.384;2024-02-21T09:28:01;99679.56;;;11.20;34.64
55470;BME280;41334;47.872;16.384;2024-02-21T09:33:03;99673.72;;;10.83;34.53
55470;BME280;41334;47.872;16.384;2024-02-21T09:38:07;99666.94;;;10.46;34.82
55470;BME280;41334;47.872;16.384;2024-02-21T09:43:09;99673.97;;;11.49;33.36
55470;BME280;41334;47.872;16.384;2024-02-21T09:53:19;99671.34;;;11.53;33.14
55470;BME280;41334;47.872;16.384;2024-02-21T09:58:23;99656.69;;;11.77;33.39
55470;BME280;41334;47.872;16.384;2024-02-21T10:03:26;99656.44;;;11.40;32.93
55470;BME280;41334;47.872;16.384;2024-02-21T10:08:28;99650.66;;;11.24;33.66
55470;BME280;41334;47.872;16.384;2024-02-21T10:13:30;99647.75;;;11.42;33.71
55470;BME280;41334;47.872;16.384;2024-02-21T10:18:33;99630.09;;;11.71;33.32
55470;BME280;41334;47.872;16.384;2024-02-21T10:23:46;99620.16;;;11.40;33.64
55470;BME280;41334;47.872;16.384;2024-02-21T10:28:48;99627.91;;;11.14;33.27
55470;BME280;41334;47.872;16.384;2024-02-21T10:33:58;99611.56;;;11.45;33.34
55470;BME280;41334;47.872;16.384;2024-02-21T10:39:01;99612.13;;;11.60;33.45
55470;BME280;41334;47.872;16.384;2024-02-21T10:44:05;99607.00;;;11.62;32.36
55470;BME280;41334;47.872;16.384;2024-02-21T10:49:18;99596.75;;;11.74;32.21
55470;BME280;41334;47.872;16.384;2024-02-21T10:54:39;99586.84;;;11.77;31.38
55470;BME280;41334;47.872;16.384;2024-02-21T10:59:45;99580.09;;;11.57;31.45
55470;BME280;41334;47.872;16.384;2024-02-21T11:04:49;99565.31;;;12.23;31.71
55470;BME280;41334;47.872;16.384;2024-02-21T11:09:53;99561.41;;;12.03;31.08
55470;BME280;41334;47.872;16.384;2024-02-21T11:15:08;99553.31;;;12.35;33.49
55470;BME280;41334;47.872;16.384;2024-02-21T11:20:12;99554.72;;;12.90;30.38
55470;BME280;41334;47.872;16.384;2024-02-21T11:25:21;99540.31;;;13.56;28.80
55470;BME280;41334;47.872;16.384;2024-02-21T11:30:30;99535.19;;;14.02;28.12
55470;BME280;41334;47.872;16.384;2024-02-21T11:35:33;99520.63;;;14.28;28.65
55470;BME280;41334;47.872;16.384;2024-02-21T11:40:38;99516.09;;;14.07;29.16
55470;BME280;41334;47.872;16.384;2024-02-21T11:45:41;99507.53;;;14.16;28.12
55470;BME280;41334;47.872;16.384;2024-02-21T11:50:52;99504.81;;;14.51;28.43
55470;BME280;41334;47.872;16.384;2024-02-21T11:55:55;99494.84;;;14.54;27.68
55470;BME280;41334;47.872;16.384;2024-02-21T12:00:58;99477.81;;;14.62;28.55
55470;BME280;41334;47.872;16.384;2024-02-21T12:06:01;99470.22;;;14.63;28.28
55470;BME280;41334;47.872;16.384;2024-02-21T12:11:24;99470.22;;;14.63;28.28
55470;BME280;41334;47.872;16.384;2024-02-21T12:16:27;99462.50;;;14.44;28.36
55470;BME280;41334;47.872;16.384;2024-02-21T12:21:33;99455.81;;;14.64;30.66
55470;BME280;41334;47.872;16.384;2024-02-21T12:26:38;99455.81;;;14.64;30.66
55470;BME280;41334;47.872;16.384;2024-02-21T12:31:41;99454.41;;;14.74;29.21
55470;BME280;41334;47.872;16.384;2024-02-21T12:36:47;99442.44;;;14.58;29.15
55470;BME280;41334;47.872;16.384;2024-02-21T12:41:49;99446.47;;;14.60;28.82
55470;BME280;41334;47.872;16.384;2024-02-21T12:46:53;99439.25;;;14.44;29.27
55470;BME280;41334;47.872;16.384;2024-02-21T12:51:57;68747.22;;;-151.47;100.00
55470;BME280;41334;47.872;16.384;2024-02-21T12:57:00;99439.25;;;14.44;29.27
55470;BME280;41334;47.872;16.384;2024-02-21T13:02:05;99427.41;;;14.34;28.08
55470;BME280;41334;47.872;16.384;2024-02-21T13:07:09;99415.41;;;13.86;31.19
55470;BME280;41334;47.872;16.384;2024-02-21T13:12:11;99406.41;;;13.77;30.51
55470;BME280;41334;47.872;16.384;2024-02-21T13:17:14;99400.41;;;13.63;30.17
55470;BME280;41334;47.872;16.384;2024-02-21T13:22:16;99387.66;;;13.97;30.16
55470;BME280;41334;47.872;16.384;2024-02-21T13:27:21;99385.47;;;14.57;29.32
55470;BME280;41334;47.872;16.384;2024-02-21T13:32:26;99382.56;;;14.89;28.29
55470;BME280;41334;47.872;16.384;2024-02-21T13:37:27;99364.75;;;14.62;27.77
55470;BME280;41334;47.872;16.384;2024-02-21T13:42:30;99362.84;;;14.50;29.12
55470;BME280;41334;47.872;16.384;2024-02-21T13:47:33;99361.56;;;14.12;28.83
55470;BME280;41334;47.872;16.384;2024-02-21T13:52:35;99356.66;;;13.90;30.34
55470;BME280;41334;47.872;16.384;2024-02-21T13:57:38;68747.22;;;-151.47;100.00
55470;BME280;41334;47.872;16.384;2024-02-21T14:02:40;68747.22;;;-151.47;100.00
55470;BME280;41334;47.872;16.384;2024-02-21T14:07:42;68747.22;;;-151.47;100.00
55470;BME280;41334;47.872;16.384;2024-02-21T14:12:44;68747.22;;;-151.47;100.00
55470;BME280;41334;47.872;16.384;2024-02-21T14:17:46;99356.66;;;13.90;30.34
55470;BME280;41334;47.872;16.384;2024-02-21T14:22:49;99318.78;;;12.61;31.15
55470;BME280;41334;47.872;16.384;2024-02-21T14:27:51;99319.66;;;11.85;31.81
55470;BME280;41334;47.872;16.384;2024-02-21T14:32:52;99319.88;;;11.92;31.76
55470;BME280;41334;47.872;16.384;2024-02-21T14:37:55;99317.53;;;12.06;32.67
55470;BME280;41334;47.872;16.384;2024-02-21T14:43:00;99311.56;;;12.20;32.64
55470;BME280;41334;47.872;16.384;2024-02-21T14:48:02;99296.63;;;12.68;31.21
55470;BME280;41334;47.872;16.384;2024-02-21T14:53:05;99287.03;;;12.69;32.55
55470;BME280;41334;47.872;16.384;2024-02-21T14:58:09;99281.94;;;12.71;32.56
55470;BME280;41334;47.872;16.384;2024-02-21T15:03:13;99267.75;;;12.52;31.35
55470;BME280;41334;47.872;16.384;2024-02-21T15:08:17;99261.41;;;12.11;32.36
55470;BME280;41334;47.872;16.384;2024-02-21T15:13:21;99262.16;;;12.24;34.20
55470;BME280;41334;47.872;16.384;2024-02-21T15:18:24;99259.09;;;11.89;34.13
55470;BME280;41334;47.872;16.384;2024-02-21T15:23:26;99262.03;;;11.55;100.00
55470;BME280;41334;47.872;16.384;2024-02-21T15:28:28;68747.22;;;-151.47;100.00
55470;BME280;41334;47.872;16.384;2024-02-21T15:33:30;68747.22;;;-151.47;100.00
55470;BME280;41334;47.872;16.384;2024-02-21T15:38:37;68747.22;;;-151.47;100.00
55470;BME280;41334;47.872;16.384;2024-02-21T15:43:40;68747.22;;;-151.47;100.00
55470;BME280;41334;47.872;16.384;2024-02-21T15:48:42;68747.22;;;-151.47;100.00
55470;BME280;41334;47.872;16.384;2024-02-21T15:53:44;68747.22;;;-151.47;100.00
55470;BME280;41334;47.872;16.384;2024-02-21T15:58:47;68747.22;;;-151.47;100.00
55470;BME280;41334;47.872;16.384;2024-02-21T16:03:49;68747.22;;;-151.47;100.00
55470;BME280;41334;47.872;16.384;2024-02-21T16:08:52;68747.22;;;-151.47;100.00
55470;BME280;41334;47.872;16.384;2024-02-21T16:13:54;68747.22;;;-151.47;100.00
55470;BME280;41334;47.872;16.384;2024-02-21T16:18:57;68747.22;;;-151.47;100.00
55470;BME280;41334;47.872;16.384;2024-02-21T16:23:59;68747.22;;;-151.47;100.00
55470;BME280;41334;47.872;16.384;2024-02-21T16:29:02;68747.22;;;-151.47;100.00
55470;BME280;41334;47.872;16.384;2024-02-21T16:34:04;68747.22;;;-151.47;100.00
55470;BME280;41334;47.872;16.384;2024-02-21T16:39:07;68747.22;;;-151.47;100.00
55470;BME280;41334;47.872;16.384;2024-02-21T16:44:09;68747.22;;;-151.47;100.00
55470;BME280;41334;47.872;16.384;2024-02-21T16:49:11;68747.22;;;-151.47;100.00
55470;BME280;41334;47.872;16.384;2024-02-21T16:54:21;68747.22;;;-151.47;100.00
55470;BME280;41334;47.872;16.384;2024-02-21T16:59:23;68747.22;;;-151.47;100.00
55470;BME280;41334;47.872;16.384;2024-02-21T17:04:25;99262.03;;;11.55;33.93
55470;BME280;41334;47.872;16.384;2024-02-21T17:09:27;99231.69;;;6.74;42.94
55470;BME280;41334;47.872;16.384;2024-02-21T17:14:30;99233.72;;;6.60;43.53
55470;BME280;41334;47.872;16.384;2024-02-21T17:19:39;99234.31;;;6.48;43.46
55470;BME280;41334;47.872;16.384;2024-02-21T17:24:50;99231.13;;;6.32;43.86
55470;BME280;41334;47.872;16.384;2024-02-21T17:29:52;99222.59;;;6.20;43.55
55470;BME280;41334;47.872;16.384;2024-02-21T17:34:54;99218.22;;;6.05;44.09
55470;BME280;41334;47.872;16.384;2024-02-21T17:40:00;99211.19;;;5.99;44.72
55470;BME280;41334;47.872;16.384;2024-02-21T17:45:06;99208.97;;;5.88;44.29
55470;BME280;41334;47.872;16.384;2024-02-21T17:50:11;99197.94;;;5.74;44.55
55470;BME280;41334;47.872;16.384;2024-02-21T17:55:13;99193.13;;;5.66;44.98
55470;BME280;41334;47.872;16.384;2024-02-21T18:00:16;99180.88;;;5.58;44.27
55470;BME280;41334;47.872;16.384;2024-02-21T18:05:20;99170.41;;;5.55;44.50
55470;BME280;41334;47.872;16.384;2024-02-21T18:10:22;99163.47;;;5.44;44.31
55470;BME280;41334;47.872;16.384;2024-02-21T18:15:25;99162.59;;;5.35;45.07
55470;BME280;41334;47.872;16.384;2024-02-21T18:20:29;99148.00;;;5.20;45.06
55470;BME280;41334;47.872;16.384;2024-02-21T18:25:31;99149.94;;;5.06;45.38
55470;BME280;41334;47.872;16.384;2024-02-21T18:30:33;99134.63;;;5.00;45.81
55470;BME280;41334;47.872;16.384;2024-02-21T18:35:35;99120.47;;;5.01;45.55
55470;BME280;41334;47.872;16.384;2024-02-21T18:40:37;99123.16;;;4.93;45.44
55470;BME280;41334;47.872;16.384;2024-02-21T18:45:39;99104.53;;;4.85;45.44
55470;BME280;41334;47.872;16.384;2024-02-21T18:51:02;99097.81;;;4.77;44.49
55470;BME280;41334;47.872;16.384;2024-02-21T18:56:04;99089.31;;;4.73;44.94
55470;BME280;41334;47.872;16.384;2024-02-21T19:01:10;99077.34;;;4.64;44.23
55470;BME280;41334;47.872;16.384;2024-02-21T19:06:12;99078.16;;;4.65;44.58
55470;BME280;41334;47.872;16.384;2024-02-21T19:11:17;99078.16;;;4.65;44.58
55470;BME280;41334;47.872;16.384;2024-02-21T19:16:19;99082.78;;;4.56;44.74
55470;BME280;41334;47.872;16.384;2024-02-21T19:21:21;99078.19;;;4.51;45.24
55470;BME280;41334;47.872;16.384;2024-02-21T19:26:23;99082.28;;;4.40;45.71
55470;BME280;41334;47.872;16.384;2024-02-21T19:31:25;99070.16;;;4.22;46.01
55470;BME280;41334;47.872;16.384;2024-02-21T19:36:27;99080.09;;;4.09;46.10
55470;BME280;41334;47.872;16.384;2024-02-21T19:41:29;99071.78;;;3.95;46.44
55470;BME280;41334;47.872;16.384;2024-02-21T19:46:31;99069.81;;;3.82;46.64
55470;BME280;41334;47.872;16.384;2024-02-21T19:51:33;99072.06;;;3.80;46.97
55470;BME280;41334;47.872;16.384;2024-02-21T19:56:36;99058.16;;;3.71;46.94
55470;BME280;41334;47.872;16.384;2024-02-21T20:01:39;99054.03;;;3.69;46.96
55470;BME280;41334;47.872;16.384;2024-02-21T20:06:41;99053.13;;;3.60;47.39
55470;BME280;41334;47.872;16.384;2024-02-21T20:11:45;99052.00;;;3.61;47.28
55470;BME280;41334;47.872;16.384;2024-02-21T20:16:47;99037.16;;;3.57;47.05
55470;BME280;41334;47.872;16.384;2024-02-21T20:21:51;99035.13;;;3.49;47.25
55470;BME280;41334;47.872;16.384;2024-02-21T20:26:53;99013.84;;;3.35;48.30
55470;BME280;41334;47.872;16.384;2024-02-21T20:31:55;98996.88;;;3.28;47.93
55470;BME280;41334;47.872;16.384;2024-02-21T20:37:01;99005.31;;;3.18;48.35
55470;BME280;41334;47.872;16.384;2024-02-21T20:42:03;98999.38;;;3.11;48.54
55470;BME280;41334;47.872;16.384;2024-02-21T20:47:06;99005.09;;;3.14;48.82
55470;BME280;41334;47.872;16.384;2024-02-21T20:52:09;99003.16;;;3.15;48.91
55470;BME280;41334;47.872;16.384;2024-02-21T20:57:11;99003.53;;;3.08;48.28
55470;BME280;41334;47.872;16.384;2024-02-21T21:02:13;98987.31;;;3.07;48.34
55470;BME280;41334;47.872;16.384;2024-02-21T21:07:15;98972.03;;;3.14;48.40
55470;BME280;41334;47.872;16.384;2024-02-21T21:12:23;98960.84;;;3.25;47.89
55470;BME280;41334;47.872;16.384;2024-02-21T21:17:25;98949.16;;;3.14;48.32
55470;BME280;41334;47.872;16.384;2024-02-21T21:22:27;98955.00;;;3.12;48.54
55470;BME280;41334;47.872;16.384;2024-02-21T21:27:30;98937.66;;;3.12;48.97
55470;BME280;41334;47.872;16.384;2024-02-21T21:32:32;98937.00;;;3.01;49.24
55470;BME280;41334;47.872;16.384;2024-02-21T21:37:34;98914.09;;;2.87;49.37
55470;BME280;41334;47.872;16.384;2024-02-21T21:42:38;98903.31;;;2.90;48.98
55470;BME280;41334;47.872;16.384;2024-02-21T21:47:40;98900.25;;;2.92;49.17
55470;BME280;41334;47.872;16.384;2024-02-21T21:52:44;98885.03;;;2.95;49.03
55470;BME280;41334;47.872;16.384;2024-02-21T21:57:50;98864.94;;;2.94;49.38
55470;BME280;41334;47.872;16.384;2024-02-21T22:02:54;98854.66;;;3.00;49.27
55470;BME280;41334;47.872;16.384;2024-02-21T22:07:57;98854.06;;;3.03;49.23
55470;BME280;41334;47.872;16.384;2024-02-21T22:13:01;98850.63;;;3.11;49.10
55470;BME280;41334;47.872;16.384;2024-02-21T22:18:04;98847.22;;;3.14;49.35
55470;BME280;41334;47.872;16.384;2024-02-21T22:23:06;98852.84;;;3.09;49.52
55470;BME280;41334;47.872;16.384;2024-02-21T22:28:08;98840.88;;;3.00;49.95
55470;BME280;41334;47.872;16.384;2024-02-21T22:33:11;98825.19;;;3.00;49.78
55470;BME280;41334;47.872;16.384;2024-02-21T22:38:13;98822.44;;;3.00;49.93
55470;BME280;41334;47.872;16.384;2024-02-21T22:43:15;98815.69;;;2.92;50.39
55470;BME280;41334;47.872;16.384;2024-02-21T22:48:18;98801.59;;;2.94;49.80
55470;BME280;41334;47.872;16.384;2024-02-21T22:53:21;98792.03;;;2.91;50.13
55470;BME280;41334;47.872;16.384;2024-02-21T22:58:23;98795.38;;;2.88;50.17
55470;BME280;41334;47.872;16.384;2024-02-21T23:03:27;98779.03;;;2.78;50.71
55470;BME280;41334;47.872;16.384;2024-02-21T23:08:29;98768.13;;;2.73;50.40
55470;BME280;41334;47.872;16.384;2024-02-21T23:13:31;98760.47;;;2.84;50.20
55470;BME280;41334;47.872;16.384;2024-02-21T23:18:34;98756.09;;;2.83;50.29
55470;BME280;41334;47.872;16.384;2024-02-21T23:23:38;98736.72;;;2.88;50.38
55470;BME280;41334;47.872;16.384;2024-02-21T23:28:43;98725.09;;;2.91;50.74
55470;BME280;41334;47.872;16.384;2024-02-21T23:33:46;98715.09;;;2.81;51.19
55470;BME280;41334;47.872;16.384;2024-02-21T23:38:48;98706.44;;;2.88;50.90
55470;BME280;41334;47.872;16.384;2024-02-21T23:43:50;98704.09;;;2.81;51.30
55470;BME280;41334;47.872;16.384;2024-02-21T23:48:54;98691.75;;;2.92;51.06
55470;BME280;41334;47.872;16.384;2024-02-21T23:53:56;98690.13;;;2.91;51.38
55470;BME280;41334;47.872;16.384;2024-02-21T23:58:58;98697.25;;;3.06;50.88
